createdAt,value
2022-10-12T00:01:19.482Z,13.40
2022-10-12T00:03:46.814Z,13.40
2022-10-12T00:06:19.575Z,13.40
2022-10-12T00:08:47.226Z,13.40
2022-10-12T00:11:16.303Z,13.40
2022-10-12T00:13:43.679Z,13.40
2022-10-12T00:16:17.930Z,13.40
2022-10-12T00:18:45.280Z,13.40
2022-10-12T00:21:14.265Z,13.40
2022-10-12T00:23:41.736Z,13.40
2022-10-12T00:26:11.408Z,13.50
2022-10-12T00:28:38.859Z,13.40
2022-10-12T00:31:11.374Z,13.50
2022-10-12T00:33:39.124Z,13.40
2022-10-12T00:36:13.769Z,13.40
2022-10-12T00:38:41.030Z,13.40
2022-10-12T00:41:08.404Z,13.40
2022-10-12T00:43:39.102Z,13.40
2022-10-12T00:46:27.551Z,13.40
2022-10-12T00:49:05.658Z,13.40
2022-10-12T00:51:32.936Z,13.40
2022-10-12T00:54:05.450Z,13.40
2022-10-12T00:56:34.468Z,13.40
2022-10-12T00:59:04.429Z,13.40
2022-10-12T01:01:32.789Z,13.30
2022-10-12T01:04:00.388Z,13.40
2022-10-12T01:06:27.681Z,13.40
2022-10-12T01:08:54.987Z,13.40
2022-10-12T01:11:22.287Z,13.40
2022-10-12T01:13:49.577Z,13.40
2022-10-12T01:16:24.776Z,13.40
2022-10-12T01:18:52.014Z,13.40
2022-10-12T01:21:22.768Z,13.40
2022-10-12T01:23:55.844Z,13.40
2022-10-12T01:26:49.275Z,13.40
2022-10-12T01:29:37.811Z,13.40
2022-10-12T01:32:30.960Z,13.50
2022-10-12T01:35:14.275Z,13.40
2022-10-12T01:37:56.682Z,13.40
2022-10-12T01:40:29.949Z,13.40
2022-10-12T01:42:58.271Z,13.40
2022-10-12T01:45:25.542Z,13.40
2022-10-12T01:47:53.510Z,13.50
2022-10-12T01:50:22.045Z,13.50
2022-10-12T01:53:27.662Z,13.50
2022-10-12T01:55:59.612Z,13.50
2022-10-12T01:58:51.371Z,13.50
2022-10-12T02:01:38.865Z,13.50
2022-10-12T02:04:28.019Z,13.50
2022-10-12T02:07:27.197Z,13.50
2022-10-12T02:09:54.917Z,13.50
2022-10-12T02:12:22.532Z,13.40
2022-10-12T02:14:55.320Z,13.40
2022-10-12T02:17:23.022Z,13.40
2022-10-12T02:20:01.146Z,13.40
2022-10-12T02:22:38.606Z,13.40
2022-10-12T02:25:11.177Z,13.40
2022-10-12T02:27:42.442Z,13.40
2022-10-12T02:30:10.682Z,13.40
2022-10-12T02:32:39.030Z,13.40
2022-10-12T02:35:15.285Z,13.40
2022-10-12T02:38:04.356Z,13.40
2022-10-12T02:40:37.715Z,13.40
2022-10-12T02:43:21.749Z,13.40
2022-10-12T02:45:49.073Z,13.50
2022-10-12T02:48:19.993Z,13.50
2022-10-12T02:50:47.368Z,13.50
2022-10-12T02:53:14.660Z,13.40
2022-10-12T02:55:56.504Z,13.40
2022-10-12T02:58:23.810Z,13.40
2022-10-12T03:00:51.283Z,13.40
2022-10-12T03:03:18.617Z,13.40
2022-10-12T03:05:46.105Z,13.40
2022-10-12T03:08:13.396Z,13.40
2022-10-12T03:10:40.655Z,13.40
2022-10-12T03:13:07.937Z,13.40
2022-10-12T03:15:35.223Z,13.40
2022-10-12T03:18:02.590Z,13.40
2022-10-12T03:20:29.907Z,13.40
2022-10-12T03:22:57.212Z,13.40
2022-10-12T03:25:24.531Z,13.40
2022-10-12T03:27:51.850Z,13.40
2022-10-12T03:30:19.126Z,13.40
2022-10-12T03:32:46.421Z,13.30
2022-10-12T03:35:13.708Z,13.30
2022-10-12T03:37:41.202Z,13.30
2022-10-12T03:40:09.591Z,13.30
2022-10-12T03:42:36.866Z,13.30
2022-10-12T03:45:04.463Z,13.30
2022-10-12T03:47:31.730Z,13.30
2022-10-12T03:49:59.026Z,13.30
2022-10-12T03:52:26.352Z,13.30
2022-10-12T03:54:53.634Z,13.30
2022-10-12T03:57:20.919Z,13.30
2022-10-12T03:59:48.194Z,13.30
2022-10-12T04:02:17.099Z,13.20
2022-10-12T04:04:44.687Z,13.20
2022-10-12T04:07:12.092Z,13.20
2022-10-12T04:09:39.446Z,13.20
2022-10-12T04:12:06.857Z,13.20
2022-10-12T04:14:34.126Z,13.20
2022-10-12T04:17:01.460Z,13.20
2022-10-12T04:19:28.751Z,13.20
2022-10-12T04:21:56.059Z,13.20
2022-10-12T04:24:23.376Z,13.20
2022-10-12T04:26:50.703Z,13.20
2022-10-12T04:29:17.968Z,13.20
2022-10-12T04:31:45.271Z,13.10
2022-10-12T04:34:12.652Z,13.10
2022-10-12T04:36:39.920Z,13.20
2022-10-12T04:39:07.283Z,13.20
2022-10-12T04:41:34.548Z,13.20
2022-10-12T04:44:01.951Z,13.20
2022-10-12T04:46:29.230Z,13.20
2022-10-12T04:48:56.611Z,13.20
2022-10-12T04:51:24.766Z,13.20
2022-10-12T04:53:52.168Z,13.20
2022-10-12T04:56:19.631Z,13.20
2022-10-12T04:58:46.908Z,13.20
2022-10-12T05:01:14.258Z,13.20
2022-10-12T05:03:42.241Z,13.20
2022-10-12T05:06:09.762Z,13.20
2022-10-12T05:08:37.035Z,13.20
2022-10-12T05:11:04.407Z,13.20
2022-10-12T05:13:31.698Z,13.20
2022-10-12T05:15:59.040Z,13.20
2022-10-12T05:18:26.380Z,13.20
2022-10-12T05:20:57.016Z,13.20
2022-10-12T05:23:24.567Z,13.20
2022-10-12T05:25:52.023Z,13.20
2022-10-12T05:28:19.344Z,13.20
2022-10-12T05:30:50.422Z,13.20
2022-10-12T05:33:18.007Z,13.20
2022-10-12T05:35:48.303Z,13.20
2022-10-12T05:38:17.784Z,13.20
2022-10-12T05:40:45.135Z,13.20
2022-10-12T05:43:12.451Z,13.20
2022-10-12T05:45:39.759Z,13.20
2022-10-12T05:48:07.067Z,13.20
2022-10-12T05:50:34.438Z,13.20
2022-10-12T05:53:01.761Z,13.30
2022-10-12T05:55:29.079Z,13.30
2022-10-12T05:57:56.430Z,13.30
2022-10-12T06:00:23.736Z,13.30
2022-10-12T06:02:51.887Z,13.30
2022-10-12T06:05:19.238Z,13.30
2022-10-12T06:07:46.577Z,13.30
2022-10-12T06:10:13.931Z,13.30
2022-10-12T06:12:41.401Z,13.30
2022-10-12T06:15:09.453Z,13.30
2022-10-12T06:17:36.786Z,13.30
2022-10-12T06:20:04.424Z,13.30
2022-10-12T06:22:31.744Z,13.30
2022-10-12T06:24:59.130Z,13.30
2022-10-12T06:27:26.478Z,13.30
2022-10-12T06:29:53.766Z,13.30
2022-10-12T06:32:21.155Z,13.30
2022-10-12T06:34:48.429Z,13.30
2022-10-12T06:37:36.987Z,13.30
2022-10-12T06:40:03.197Z,13.30
2022-10-12T06:42:30.515Z,13.30
2022-10-12T06:44:57.805Z,13.30
2022-10-12T06:47:25.122Z,13.40
2022-10-12T06:49:52.389Z,13.40
2022-10-12T06:52:19.700Z,13.40
2022-10-12T06:54:47.027Z,13.40
2022-10-12T06:57:14.341Z,13.50
2022-10-12T06:59:41.605Z,13.50
2022-10-12T07:02:11.939Z,13.50
2022-10-12T07:04:39.226Z,13.50
2022-10-12T07:07:06.512Z,13.60
2022-10-12T07:09:33.791Z,13.60
2022-10-12T07:12:01.100Z,13.60
2022-10-12T07:14:28.393Z,13.60
2022-10-12T07:16:55.749Z,13.70
2022-10-12T07:19:23.086Z,13.70
2022-10-12T07:21:50.417Z,13.80
2022-10-12T07:24:17.688Z,13.80
2022-10-12T07:26:45.037Z,13.90
2022-10-12T07:29:12.314Z,13.90
2022-10-12T07:31:39.635Z,13.90
2022-10-12T07:34:07.016Z,13.90
2022-10-12T07:36:57.493Z,13.90
2022-10-12T07:39:24.910Z,14.00
2022-10-12T07:41:52.530Z,14.00
2022-10-12T07:44:20.051Z,14.00
2022-10-12T07:46:47.347Z,14.00
2022-10-12T07:49:15.017Z,14.00
2022-10-12T07:51:42.480Z,14.00
2022-10-12T07:54:09.831Z,14.00
2022-10-12T07:56:37.165Z,14.00
2022-10-12T07:59:04.483Z,14.10
2022-10-12T08:01:33.101Z,14.10
2022-10-12T08:04:02.013Z,14.10
2022-10-12T08:06:31.930Z,14.10
2022-10-12T08:09:00.017Z,14.20
2022-10-12T08:11:27.476Z,14.20
2022-10-12T08:13:56.047Z,14.10
2022-10-12T08:16:23.914Z,14.20
2022-10-12T08:18:51.466Z,14.20
2022-10-12T08:21:18.864Z,14.20
2022-10-12T08:23:46.756Z,14.20
2022-10-12T08:26:14.693Z,14.20
2022-10-12T08:28:42.215Z,14.10
2022-10-12T08:31:14.409Z,14.10
2022-10-12T08:33:41.770Z,14.10
2022-10-12T08:36:09.408Z,14.10
2022-10-12T08:38:38.960Z,14.10
2022-10-12T08:41:23.047Z,14.10
2022-10-12T08:44:15.155Z,14.10
2022-10-12T08:46:42.441Z,14.10
2022-10-12T08:49:20.031Z,14.10
2022-10-12T08:51:55.359Z,14.10
2022-10-12T08:54:23.527Z,14.10
2022-10-12T08:56:53.595Z,14.00
2022-10-12T08:59:20.994Z,14.00
2022-10-12T09:02:15.984Z,14.10
2022-10-12T09:05:03.862Z,14.10
2022-10-12T09:07:54.694Z,14.20
2022-10-12T09:10:28.079Z,14.20
2022-10-12T09:13:11.445Z,14.30
2022-10-12T09:15:59.819Z,14.30
2022-10-12T09:18:40.825Z,14.30
2022-10-12T09:21:11.606Z,14.30
2022-10-12T09:23:39.874Z,14.40
2022-10-12T09:26:17.909Z,14.50
2022-10-12T09:29:20.674Z,14.50
2022-10-12T09:32:14.019Z,14.60
2022-10-12T09:34:44.064Z,14.60
2022-10-12T09:37:37.964Z,14.60
2022-10-12T09:40:06.233Z,14.60
2022-10-12T09:42:34.197Z,14.70
2022-10-12T09:45:19.022Z,14.70
2022-10-12T09:48:10.419Z,14.70
2022-10-12T09:50:44.125Z,14.80
2022-10-12T09:53:28.687Z,14.80
2022-10-12T09:56:16.027Z,14.90
2022-10-12T09:58:50.829Z,14.90
2022-10-12T10:01:26.241Z,15.00
2022-10-12T10:04:23.729Z,15.10
2022-10-12T10:06:51.135Z,15.10
2022-10-12T10:09:30.141Z,15.10
2022-10-12T10:11:58.643Z,15.10
2022-10-12T10:14:25.974Z,15.10
2022-10-12T10:16:54.734Z,15.10
2022-10-12T10:19:25.062Z,15.20
2022-10-12T10:21:53.333Z,15.20
2022-10-12T10:24:29.115Z,15.30
2022-10-12T10:27:00.311Z,15.30
2022-10-12T10:29:40.761Z,15.40
2022-10-12T10:32:14.963Z,15.40
2022-10-12T10:34:42.440Z,15.50
2022-10-12T10:37:18.751Z,15.50
2022-10-12T10:39:50.116Z,15.60
2022-10-12T10:42:28.611Z,15.60
2022-10-12T10:45:03.851Z,15.60
2022-10-12T10:47:32.015Z,15.60
2022-10-12T10:50:01.418Z,15.70
2022-10-12T10:52:30.307Z,15.70
2022-10-12T10:55:14.930Z,15.80
2022-10-12T10:57:46.618Z,15.80
2022-10-12T11:00:38.078Z,15.90
2022-10-12T11:03:28.973Z,15.90
2022-10-12T11:06:22.667Z,16.00
2022-10-12T11:09:02.396Z,16.00
2022-10-12T11:11:29.731Z,16.00
2022-10-12T11:14:02.201Z,16.00
2022-10-12T11:16:38.859Z,16.10
2022-10-12T11:19:26.147Z,16.10
2022-10-12T11:21:56.711Z,16.10
2022-10-12T11:24:52.211Z,16.10
2022-10-12T11:27:35.004Z,16.20
2022-10-12T11:30:09.349Z,16.20
2022-10-12T11:32:40.914Z,16.20
2022-10-12T11:35:10.184Z,16.20
2022-10-12T11:37:43.974Z,16.20
2022-10-12T11:40:47.865Z,16.20
2022-10-12T11:43:16.591Z,16.20
2022-10-12T11:45:47.235Z,16.30
2022-10-12T11:48:24.784Z,16.20
2022-10-12T11:50:54.264Z,16.20
2022-10-12T11:53:46.442Z,16.20
2022-10-12T11:56:37.683Z,16.20
2022-10-12T11:59:10.788Z,16.20
2022-10-12T12:02:01.084Z,16.20
2022-10-12T12:04:42.170Z,16.30
2022-10-12T12:07:35.275Z,16.30
2022-10-12T12:10:24.887Z,16.30
2022-10-12T12:13:12.890Z,16.40
2022-10-12T12:15:52.733Z,16.30
2022-10-12T12:18:24.503Z,16.30
2022-10-12T12:21:02.300Z,16.30
2022-10-12T12:23:35.726Z,16.30
2022-10-12T12:26:16.506Z,16.30
2022-10-12T12:28:48.861Z,16.30
2022-10-12T12:31:22.361Z,16.30
2022-10-12T12:33:52.065Z,16.30
2022-10-12T12:36:35.000Z,16.30
2022-10-12T12:39:03.017Z,16.30
2022-10-12T12:42:01.864Z,16.30
2022-10-12T12:44:40.452Z,16.40
2022-10-12T12:47:33.067Z,16.30
2022-10-12T12:50:23.134Z,16.30
2022-10-12T12:52:50.409Z,16.20
2022-10-12T12:55:42.832Z,16.20
2022-10-12T12:58:31.830Z,16.20
2022-10-12T13:01:17.781Z,16.20
2022-10-12T13:03:51.025Z,16.20
2022-10-12T13:06:50.715Z,16.20
2022-10-12T13:09:36.520Z,16.20
2022-10-12T13:12:12.479Z,16.20
2022-10-12T13:15:11.578Z,16.20
2022-10-12T13:17:51.182Z,16.20
2022-10-12T13:20:29.348Z,16.20
2022-10-12T13:22:57.870Z,16.20
2022-10-12T13:25:29.834Z,16.20
2022-10-12T13:27:57.252Z,16.20
2022-10-12T13:30:33.139Z,16.20
2022-10-12T13:33:11.338Z,16.20
2022-10-12T13:35:45.454Z,16.20
2022-10-12T13:38:15.706Z,16.10
2022-10-12T13:40:44.944Z,16.10
2022-10-12T13:43:31.510Z,16.10
2022-10-12T13:45:59.206Z,16.10
2022-10-12T13:48:54.036Z,16.10
2022-10-12T13:51:25.544Z,16.00
2022-10-12T13:53:53.495Z,16.00
2022-10-12T13:56:23.304Z,16.00
2022-10-12T13:58:53.628Z,16.00
2022-10-12T14:01:20.983Z,15.90
2022-10-12T14:03:48.367Z,15.80
2022-10-12T14:06:35.526Z,15.80
2022-10-12T14:09:10.398Z,16.00
2022-10-12T14:11:37.813Z,16.10
2022-10-12T14:14:05.110Z,16.10
2022-10-12T14:16:32.605Z,16.10
2022-10-12T14:19:21.351Z,16.00
2022-10-12T14:21:48.990Z,16.10
2022-10-12T14:24:18.144Z,16.00
2022-10-12T14:26:52.109Z,16.00
2022-10-12T14:29:36.197Z,16.00
2022-10-12T14:32:05.169Z,16.00
2022-10-12T14:34:40.960Z,16.00
2022-10-12T14:37:17.538Z,16.00
2022-10-12T14:39:46.338Z,16.00
2022-10-12T14:42:28.792Z,16.00
2022-10-12T14:44:56.436Z,15.90
2022-10-12T14:47:42.919Z,15.90
2022-10-12T14:50:12.136Z,15.90
2022-10-12T14:52:43.855Z,15.90
2022-10-12T14:55:15.923Z,15.80
2022-10-12T14:57:43.861Z,15.80
2022-10-12T15:00:21.083Z,15.80
2022-10-12T15:02:48.889Z,15.80
2022-10-12T15:05:17.785Z,15.80
2022-10-12T15:07:46.941Z,15.80
2022-10-12T15:10:15.005Z,15.80
2022-10-12T15:12:43.691Z,15.70
2022-10-12T15:15:28.964Z,15.70
2022-10-12T15:17:57.060Z,15.70
2022-10-12T15:20:25.586Z,15.60
2022-10-12T15:22:52.965Z,15.60
2022-10-12T15:25:33.112Z,15.50
2022-10-12T15:28:00.854Z,15.50
2022-10-12T15:30:28.159Z,15.50
2022-10-12T15:32:55.496Z,15.40
2022-10-12T15:35:24.996Z,15.40
2022-10-12T15:37:52.628Z,15.40
2022-10-12T15:40:20.416Z,15.40
2022-10-12T15:42:47.790Z,15.40
2022-10-12T15:45:18.557Z,15.40
2022-10-12T15:47:46.916Z,15.40
2022-10-12T15:50:14.701Z,15.30
2022-10-12T15:52:42.148Z,15.30
2022-10-12T15:55:15.976Z,15.30
2022-10-12T15:57:43.381Z,15.30
2022-10-12T16:00:11.587Z,15.20
2022-10-12T16:02:42.452Z,15.20
2022-10-12T16:05:21.968Z,15.20
2022-10-12T16:07:49.462Z,15.20
2022-10-12T16:10:17.814Z,15.20
2022-10-12T16:12:46.912Z,15.20
2022-10-12T16:15:16.053Z,15.20
2022-10-12T16:17:43.441Z,15.20
2022-10-12T16:20:11.362Z,15.10
2022-10-12T16:22:42.552Z,15.10
2022-10-12T16:25:10.839Z,15.10
2022-10-12T16:27:38.349Z,15.10
2022-10-12T16:30:09.695Z,15.10
2022-10-12T16:32:37.142Z,15.10
2022-10-12T16:35:05.300Z,15.10
2022-10-12T16:37:33.182Z,15.10
2022-10-12T16:40:01.364Z,15.00
2022-10-12T16:42:29.133Z,15.00
2022-10-12T16:44:56.483Z,15.00
2022-10-12T16:47:25.422Z,15.00
2022-10-12T16:49:53.894Z,14.90
2022-10-12T16:52:25.050Z,14.90
2022-10-12T16:54:53.089Z,14.90
2022-10-12T16:57:20.818Z,14.90
2022-10-12T16:59:48.607Z,15.00
2022-10-12T17:02:17.020Z,15.00
2022-10-12T17:04:45.706Z,14.90
2022-10-12T17:07:13.430Z,14.90
2022-10-12T17:09:40.773Z,14.90
2022-10-12T17:12:08.252Z,14.90
2022-10-12T17:14:35.695Z,14.90
2022-10-12T17:17:03.120Z,14.90
2022-10-12T17:19:32.436Z,14.90
2022-10-12T17:22:01.012Z,14.90
2022-10-12T17:24:29.073Z,14.90
2022-10-12T17:26:56.460Z,14.80
2022-10-12T17:29:24.691Z,14.80
2022-10-12T17:31:52.442Z,14.80
2022-10-12T17:34:29.442Z,14.90
2022-10-12T17:36:57.859Z,14.90
2022-10-12T17:39:25.839Z,14.90
2022-10-12T17:41:53.215Z,14.80
2022-10-12T17:44:20.572Z,14.80
2022-10-12T17:46:48.056Z,14.80
2022-10-12T17:49:24.527Z,14.80
2022-10-12T17:51:52.688Z,14.70
2022-10-12T17:54:20.514Z,14.80
2022-10-12T17:56:47.896Z,14.70
2022-10-12T17:59:16.789Z,14.70
2022-10-12T18:01:44.233Z,14.70
2022-10-12T18:04:12.083Z,14.70
2022-10-12T18:06:39.548Z,14.60
2022-10-12T18:09:07.219Z,14.60
2022-10-12T18:11:34.896Z,14.60
2022-10-12T18:14:02.276Z,14.50
2022-10-12T18:16:31.292Z,14.50
2022-10-12T18:18:59.258Z,14.50
2022-10-12T18:21:27.434Z,14.40
2022-10-12T18:23:56.955Z,14.40
2022-10-12T18:26:24.989Z,14.30
2022-10-12T18:28:53.353Z,14.30
2022-10-12T18:31:25.338Z,14.20
2022-10-12T18:33:53.181Z,14.10
2022-10-12T18:36:21.301Z,14.10
2022-10-12T18:38:48.736Z,14.00
2022-10-12T18:41:17.864Z,14.00
2022-10-12T18:43:45.235Z,14.00
2022-10-12T18:46:13.736Z,13.90
2022-10-12T18:48:41.294Z,13.90
2022-10-12T18:51:21.816Z,13.80
2022-10-12T18:53:49.280Z,13.80
2022-10-12T18:56:16.887Z,13.80
2022-10-12T18:58:44.232Z,13.70
2022-10-12T19:01:13.347Z,13.70
2022-10-12T19:03:40.911Z,13.60
2022-10-12T19:06:10.865Z,13.60
2022-10-12T19:08:38.530Z,13.50
2022-10-12T19:11:08.052Z,13.40
2022-10-12T19:13:36.716Z,13.40
2022-10-12T19:16:15.214Z,13.40
2022-10-12T19:18:42.602Z,13.30
2022-10-12T19:21:14.587Z,13.30
2022-10-12T19:23:42.119Z,13.20
2022-10-12T19:26:17.141Z,13.20
2022-10-12T19:28:44.774Z,13.20
2022-10-12T19:31:20.594Z,13.10
2022-10-12T19:33:48.021Z,13.10
2022-10-12T19:36:16.416Z,13.10
2022-10-12T19:38:45.849Z,13.00
2022-10-12T19:41:13.352Z,13.00
2022-10-12T19:43:43.019Z,12.90
2022-10-12T19:46:11.102Z,12.90
2022-10-12T19:48:38.691Z,12.90
2022-10-12T19:51:08.023Z,12.90
2022-10-12T19:53:35.418Z,12.80
2022-10-12T19:56:04.529Z,12.80
2022-10-12T19:58:31.898Z,12.80
2022-10-12T20:01:09.463Z,12.80
2022-10-12T20:03:38.561Z,12.70
2022-10-12T20:06:09.122Z,12.80
2022-10-12T20:08:37.127Z,12.70
2022-10-12T20:11:04.524Z,12.70
2022-10-12T20:13:31.890Z,12.70
2022-10-12T20:15:59.314Z,12.60
2022-10-12T20:18:26.914Z,12.60
2022-10-12T20:20:54.463Z,12.60
2022-10-12T20:23:22.012Z,12.60
2022-10-12T20:25:53.937Z,12.60
2022-10-12T20:28:21.885Z,12.50
2022-10-12T20:30:49.290Z,12.50
2022-10-12T20:33:16.665Z,12.40
2022-10-12T20:35:48.367Z,12.40
2022-10-12T20:38:16.877Z,12.40
2022-10-12T20:40:45.878Z,12.30
2022-10-12T20:43:14.288Z,12.40
2022-10-12T20:45:41.937Z,12.40
2022-10-12T20:48:09.406Z,12.40
2022-10-12T20:50:37.402Z,12.40
2022-10-12T20:53:04.729Z,12.30
2022-10-12T20:55:32.056Z,12.30
2022-10-12T20:57:59.467Z,12.20
2022-10-12T21:00:27.008Z,12.20
2022-10-12T21:02:54.405Z,12.20
2022-10-12T21:05:21.695Z,12.20
2022-10-12T21:07:49.044Z,12.20
2022-10-12T21:10:16.403Z,12.20
2022-10-12T21:12:43.775Z,12.20
2022-10-12T21:15:11.284Z,12.20
2022-10-12T21:17:38.601Z,12.10
2022-10-12T21:20:06.370Z,12.10
2022-10-12T21:22:33.699Z,12.10
2022-10-12T21:25:01.002Z,12.10
2022-10-12T21:27:28.340Z,12.00
2022-10-12T21:29:55.608Z,12.00
2022-10-12T21:32:22.967Z,12.00
2022-10-12T21:34:50.562Z,12.00
2022-10-12T21:37:17.966Z,12.10
2022-10-12T21:39:45.467Z,12.00
2022-10-12T21:42:12.771Z,12.00
2022-10-12T21:44:40.194Z,12.00
2022-10-12T21:47:07.550Z,12.00
2022-10-12T21:49:34.872Z,12.00
2022-10-12T21:52:02.162Z,12.00
2022-10-12T21:54:29.547Z,12.00
2022-10-12T21:56:56.818Z,12.00
2022-10-12T21:59:26.356Z,12.00
2022-10-12T22:01:53.822Z,11.90
2022-10-12T22:04:21.232Z,11.90
2022-10-12T22:06:48.620Z,11.90
2022-10-12T22:09:16.901Z,11.90
2022-10-12T22:11:44.362Z,11.90
2022-10-12T22:14:13.602Z,11.90
2022-10-12T22:16:40.914Z,11.80
2022-10-12T22:19:08.534Z,11.90
2022-10-12T22:21:36.368Z,11.90
2022-10-12T22:24:03.824Z,11.80
2022-10-12T22:26:32.505Z,11.80
2022-10-12T22:29:01.992Z,11.80
2022-10-12T22:31:29.348Z,11.80
2022-10-12T22:33:56.691Z,11.70
2022-10-12T22:36:24.013Z,11.80
2022-10-12T22:38:51.314Z,11.70
2022-10-12T22:41:19.933Z,11.80
2022-10-12T22:43:52.022Z,11.70
2022-10-12T22:46:19.698Z,11.70
2022-10-12T22:48:47.074Z,11.70
2022-10-12T22:51:32.575Z,11.70
2022-10-12T22:53:59.986Z,11.70
2022-10-12T22:56:27.542Z,11.70
2022-10-12T22:58:55.867Z,11.60
2022-10-12T23:01:23.433Z,11.60
2022-10-12T23:03:50.785Z,11.60
2022-10-12T23:06:18.489Z,11.60
2022-10-12T23:08:46.213Z,11.60
2022-10-12T23:11:18.790Z,11.60
2022-10-12T23:13:46.241Z,11.60
2022-10-12T23:16:15.939Z,11.50
2022-10-12T23:18:43.253Z,11.50
2022-10-12T23:21:12.496Z,11.50
2022-10-12T23:23:40.034Z,11.50
2022-10-12T23:26:17.885Z,11.50
2022-10-12T23:28:45.661Z,11.50
2022-10-12T23:31:17.844Z,11.50
2022-10-12T23:33:45.328Z,11.50
2022-10-12T23:36:14.400Z,11.50
2022-10-12T23:38:42.246Z,11.50
2022-10-12T23:41:09.866Z,11.50
2022-10-12T23:43:37.216Z,11.50
2022-10-12T23:46:05.233Z,11.50
2022-10-12T23:48:32.828Z,11.50
2022-10-12T23:51:00.388Z,11.50
2022-10-12T23:53:27.738Z,11.40
2022-10-12T23:55:55.172Z,11.40
2022-10-12T23:58:22.493Z,11.40
